Terminal Aerodrome Forecast
Issued by NWS

Home | Current Version | Previous Version | Text Only | Print | Product List | Glossary On
Versions: 1 2 3 4 5 6 7 8 9 10 11 12 13 14 15 16 17 18 19 20 21 22 23
000
FTUS42 KJAX 192331
TAFVQQ
TAF
KVQQ 192331Z 2000/2024 VRB04KT P6SM VCTS FEW035CB SCT130 BKN250
      TEMPO 2000/2001 VRB10G20KT 3SM TSRA BKN035CB OVC130
     FM200130 VRB03KT P6SM SCT070 BKN250
     FM200800 00000KT 4SM BR FEW003 SCT250
     FM201900 09006KT P6SM VCTS FEW015 SCT030CB OVC045
      TEMPO 2019/2022 4SM -TSRA FEW009 SCT015 OVC030CB
     FM202200 11009KT P6SM FEW025 SCT040 BKN250=

USA.gov is the U.S. government's official web portal to all federal, state and local government web resources and services.